createdAt,value
2023-12-04T00:02:17.274Z,-7.30
2023-12-04T00:07:19.048Z,-7.30
2023-12-04T00:12:21.221Z,-7.30
2023-12-04T00:17:23.568Z,-7.30
2023-12-04T00:22:25.752Z,-7.30
2023-12-04T00:27:28.786Z,-7.30
2023-12-04T00:32:30.579Z,-7.30
2023-12-04T00:37:32.291Z,-7.20
2023-12-04T00:42:34.099Z,-7.30
2023-12-04T00:47:35.981Z,-7.30
2023-12-04T00:52:38.279Z,-7.30
2023-12-04T00:57:40.520Z,-7.40
2023-12-04T01:02:42.315Z,-7.40
2023-12-04T01:07:44.258Z,-7.30
2023-12-04T01:12:45.979Z,-7.30
2023-12-04T01:17:48.074Z,-7.20
2023-12-04T01:22:49.891Z,-7.30
2023-12-04T01:27:51.633Z,-7.40
2023-12-04T01:32:53.750Z,-7.50
2023-12-04T01:37:55.550Z,-7.50
2023-12-04T01:42:57.359Z,-7.50
2023-12-04T01:47:59.916Z,-7.40
2023-12-04T01:53:02.782Z,-7.30
2023-12-04T01:58:05.437Z,-7.30
2023-12-04T02:03:09.044Z,-7.30
2023-12-04T02:08:11.753Z,-7.10
2023-12-04T02:13:13.515Z,-7.10
2023-12-04T02:18:15.601Z,-7.00
2023-12-04T02:23:17.394Z,-7.00
2023-12-04T02:28:21.263Z,-7.00
2023-12-04T02:33:25.260Z,-6.90
2023-12-04T02:38:28.298Z,-7.00
2023-12-04T02:43:30.086Z,-7.10
2023-12-04T02:48:32.028Z,-7.30
2023-12-04T02:53:33.839Z,-7.40
2023-12-04T02:58:35.791Z,-7.40
2023-12-04T03:03:37.606Z,-7.40
2023-12-04T03:08:39.327Z,-7.40
2023-12-04T03:13:41.091Z,-7.30
2023-12-04T03:18:42.979Z,-7.10
2023-12-04T03:23:44.761Z,-7.20
2023-12-04T03:28:46.510Z,-7.10
2023-12-04T03:33:48.297Z,-7.10
2023-12-04T03:38:50.663Z,-7.10
2023-12-04T03:43:52.362Z,-7.30
2023-12-04T03:48:54.661Z,-7.30
2023-12-04T03:53:56.438Z,-7.30
2023-12-04T03:58:58.134Z,-7.20
2023-12-04T04:03:59.889Z,-7.10
2023-12-04T04:09:01.792Z,-7.10
2023-12-04T04:14:03.615Z,-7.10
2023-12-04T04:19:06.653Z,-7.10
2023-12-04T04:24:08.891Z,-7.00
2023-12-04T04:29:10.769Z,-6.90
2023-12-04T04:34:12.525Z,-6.90
2023-12-04T04:39:15.225Z,-6.70
2023-12-04T04:44:16.956Z,-6.60
2023-12-04T04:49:18.924Z,-6.70
2023-12-04T04:54:21.192Z,-6.70
2023-12-04T04:59:23.041Z,-6.60
2023-12-04T05:04:25.038Z,-6.50
2023-12-04T05:09:27.499Z,-6.50
2023-12-04T05:14:30.193Z,-6.50
2023-12-04T05:19:32.324Z,-6.50
2023-12-04T05:24:34.656Z,-6.40
2023-12-04T05:29:36.438Z,-6.40
2023-12-04T05:34:38.214Z,-6.40
2023-12-04T05:39:40.644Z,-6.40
2023-12-04T05:44:42.355Z,-6.40
2023-12-04T05:49:44.504Z,-6.40
2023-12-04T05:54:46.368Z,-6.30
2023-12-04T05:59:48.227Z,-6.10
2023-12-04T06:04:49.962Z,-6.00
2023-12-04T06:09:51.776Z,-5.80
2023-12-04T06:14:53.745Z,-5.80
2023-12-04T06:19:55.640Z,-6.00
2023-12-04T06:24:57.628Z,-6.00
2023-12-04T06:29:59.845Z,-6.00
2023-12-04T06:35:01.963Z,-6.10
2023-12-04T06:40:04.531Z,-6.00
2023-12-04T06:45:07.077Z,-6.10
2023-12-04T06:50:09.132Z,-6.10
2023-12-04T06:55:11.056Z,-6.00
2023-12-04T07:00:21.521Z,-6.10
2023-12-04T07:05:24.530Z,-6.00
2023-12-04T07:10:26.282Z,-6.00
2023-12-04T07:15:28.051Z,-6.10
2023-12-04T07:20:29.984Z,-6.00
2023-12-04T07:25:31.669Z,-6.00
2023-12-04T07:30:33.526Z,-5.90
2023-12-04T07:35:35.284Z,-5.80
2023-12-04T07:40:37.033Z,-5.60
2023-12-04T07:45:38.967Z,-5.60
2023-12-04T07:50:40.952Z,-5.50
2023-12-04T07:55:43.035Z,-5.50
2023-12-04T08:00:48.758Z,-5.40
2023-12-04T08:05:53.723Z,-5.30
2023-12-04T08:10:55.498Z,-5.20
2023-12-04T08:15:57.305Z,-5.10
2023-12-04T08:21:01.925Z,-4.90
2023-12-04T08:26:04.749Z,-4.70
2023-12-04T08:31:09.409Z,-4.60
2023-12-04T08:36:12.510Z,-4.60
2023-12-04T08:41:14.284Z,-4.40
2023-12-04T08:46:16.256Z,-4.30
2023-12-04T08:51:18.780Z,-4.20
2023-12-04T08:56:25.977Z,-4.10
2023-12-04T09:01:33.727Z,-3.90
2023-12-04T09:11:44.542Z,-3.80
2023-12-04T09:16:46.619Z,-3.60
2023-12-04T09:21:51.219Z,-3.60
2023-12-04T09:26:53.349Z,-3.70
2023-12-04T09:31:55.218Z,-3.80
2023-12-04T09:37:05.601Z,-3.60
2023-12-04T09:42:10.981Z,-3.60
2023-12-04T09:47:12.961Z,-3.30
2023-12-04T09:52:15.797Z,-3.20
2023-12-04T09:57:18.027Z,-3.20
2023-12-04T10:02:21.044Z,-3.30
2023-12-04T10:07:23.082Z,-3.30
2023-12-04T10:12:26.023Z,-3.30
2023-12-04T10:17:35.292Z,-3.30
2023-12-04T10:22:37.041Z,-3.30
2023-12-04T10:27:38.821Z,-3.20
2023-12-04T10:32:41.165Z,-3.10
2023-12-04T10:37:43.115Z,-3.00
2023-12-04T10:42:44.945Z,-3.00
2023-12-04T10:47:48.106Z,-2.90
2023-12-04T10:52:50.259Z,-2.80
2023-12-04T10:57:55.057Z,-2.70
2023-12-04T11:02:58.150Z,-2.60
2023-12-04T11:08:14.906Z,-2.50
2023-12-04T11:13:24.785Z,-2.30
2023-12-04T11:18:29.184Z,-2.10
2023-12-04T11:23:32.573Z,-1.90
2023-12-04T11:28:37.512Z,-1.80
2023-12-04T11:33:39.809Z,-1.80
2023-12-04T11:38:49.673Z,-1.80
2023-12-04T11:43:52.803Z,-1.80
2023-12-04T11:48:57.106Z,-1.90
2023-12-04T11:53:58.973Z,-1.90
2023-12-04T11:59:07.009Z,-1.80
2023-12-04T12:04:09.446Z,-1.80
2023-12-04T12:09:11.394Z,-1.80
2023-12-04T12:14:14.260Z,-1.80
2023-12-04T12:19:16.682Z,-1.70
2023-12-04T12:24:19.756Z,-1.60
2023-12-04T12:29:21.540Z,-1.60
2023-12-04T12:34:23.384Z,-1.50
2023-12-04T12:39:25.251Z,-1.30
2023-12-04T12:44:28.359Z,-1.30
2023-12-04T12:49:36.623Z,-1.30
2023-12-04T12:54:44.609Z,-1.30
2023-12-04T12:59:46.458Z,-1.30
2023-12-04T13:04:48.556Z,-1.30
2023-12-04T13:09:51.248Z,-1.30
2023-12-04T13:14:53.356Z,-1.30
2023-12-04T13:19:55.100Z,-1.20
2023-12-04T13:24:56.941Z,-1.10
2023-12-04T13:29:58.664Z,-1.10
2023-12-04T13:35:00.517Z,-1.10
2023-12-04T13:40:07.763Z,-1.10
2023-12-04T13:45:10.801Z,-1.10
2023-12-04T13:50:12.665Z,-1.10
2023-12-04T13:55:22.056Z,-1.20
2023-12-04T14:00:23.900Z,-1.30
2023-12-04T14:05:26.030Z,-1.20
2023-12-04T14:10:29.075Z,-1.30
2023-12-04T14:15:31.084Z,-1.20
2023-12-04T14:20:32.825Z,-1.30
2023-12-04T14:25:34.589Z,-1.30
2023-12-04T14:30:36.607Z,-1.30
2023-12-04T14:35:38.498Z,-1.30
2023-12-04T14:40:40.582Z,-1.30
2023-12-04T14:45:42.334Z,-1.30
2023-12-04T14:50:44.148Z,-1.30
2023-12-04T14:56:05.976Z,-1.30
2023-12-04T15:01:26.920Z,-1.20
2023-12-04T15:06:34.847Z,-1.10
2023-12-04T15:11:36.683Z,-1.20
2023-12-04T15:16:48.472Z,-1.30
2023-12-04T15:21:50.896Z,-1.20
2023-12-04T15:26:53.136Z,-1.20
2023-12-04T15:31:54.855Z,-1.30
2023-12-04T15:36:56.627Z,-1.30
2023-12-04T15:41:58.356Z,-1.30
2023-12-04T15:47:01.854Z,-1.20
2023-12-04T15:52:05.049Z,-1.10
2023-12-04T15:57:06.940Z,-1.10
2023-12-04T16:02:09.499Z,-1.10
2023-12-04T16:07:11.371Z,-1.10
2023-12-04T16:12:13.329Z,-1.20
2023-12-04T16:17:15.084Z,-1.10
2023-12-04T16:22:17.531Z,-1.20
2023-12-04T16:27:19.330Z,-1.20
2023-12-04T16:32:21.161Z,-1.10
2023-12-04T16:37:23.239Z,-1.10
2023-12-04T16:42:25.726Z,-1.00
2023-12-04T16:47:27.550Z,-1.10
2023-12-04T16:52:29.413Z,-1.10
2023-12-04T16:57:31.374Z,-1.10
2023-12-04T17:02:33.208Z,-1.10
2023-12-04T17:07:35.131Z,-1.00
2023-12-04T17:12:44.936Z,-1.00
2023-12-04T17:17:46.759Z,-0.80
2023-12-04T17:22:48.973Z,-0.90
2023-12-04T17:27:52.945Z,-1.00
2023-12-04T17:32:54.671Z,-1.00
2023-12-04T17:37:56.490Z,-1.10
2023-12-04T17:42:58.575Z,-1.10
2023-12-04T17:48:01.500Z,-1.10
2023-12-04T17:53:03.389Z,-1.10
2023-12-04T17:58:05.447Z,-1.20
2023-12-04T18:03:10.378Z,-1.30
2023-12-04T18:08:13.041Z,-1.50
2023-12-04T18:13:14.721Z,-1.60
2023-12-04T18:18:18.355Z,-1.70
2023-12-04T18:23:20.588Z,-1.80
2023-12-04T18:28:22.596Z,-1.90
2023-12-04T18:33:25.251Z,-2.10
2023-12-04T18:38:40.357Z,-2.10
2023-12-04T18:43:42.341Z,-2.10
2023-12-04T18:48:45.360Z,-2.20
2023-12-04T18:53:47.413Z,-2.20
2023-12-04T18:58:49.448Z,-2.20
2023-12-04T19:03:51.341Z,-2.20
2023-12-04T19:08:53.168Z,-2.20
2023-12-04T19:13:55.477Z,-2.10
2023-12-04T19:18:57.387Z,-2.10
2023-12-04T19:23:59.601Z,-2.10
2023-12-04T19:29:01.306Z,-2.10
2023-12-04T19:34:03.176Z,-2.10
2023-12-04T19:39:05.046Z,-2.10
2023-12-04T19:44:06.826Z,-2.10
2023-12-04T19:49:09.486Z,-2.10
2023-12-04T19:54:14.400Z,-2.10
2023-12-04T19:59:16.594Z,-2.10
2023-12-04T20:04:18.499Z,-2.10
2023-12-04T20:09:20.352Z,-2.10
2023-12-04T20:14:22.088Z,-2.00
2023-12-04T20:19:23.903Z,-1.90
2023-12-04T20:24:25.702Z,-2.00
2023-12-04T20:29:27.815Z,-1.90
2023-12-04T20:34:31.222Z,-1.80
2023-12-04T20:39:33.391Z,-1.80
2023-12-04T20:44:37.665Z,-1.80
2023-12-04T20:49:39.473Z,-1.70
2023-12-04T20:54:41.339Z,-1.70
2023-12-04T20:59:43.363Z,-1.60
2023-12-04T21:04:45.312Z,-1.50
2023-12-04T21:09:47.133Z,-1.40
2023-12-04T21:14:49.469Z,-1.30
2023-12-04T21:19:51.640Z,-1.30
2023-12-04T21:24:53.426Z,-1.10
2023-12-04T21:29:55.565Z,-1.10
2023-12-04T21:34:57.529Z,-1.00
2023-12-04T21:39:59.722Z,-0.90
2023-12-04T21:45:01.551Z,-0.80
2023-12-04T21:50:04.007Z,-0.80
2023-12-04T21:55:06.200Z,-0.70
2023-12-04T22:00:09.891Z,-0.70
2023-12-04T22:05:11.874Z,-0.70
2023-12-04T22:10:13.881Z,-0.60
2023-12-04T22:15:15.666Z,-0.60
2023-12-04T22:20:17.503Z,-0.50
2023-12-04T22:25:22.298Z,-0.50
2023-12-04T22:30:24.180Z,-0.50
2023-12-04T22:35:26.112Z,-0.50
2023-12-04T22:40:28.952Z,-0.50
2023-12-04T22:45:30.845Z,-0.50
2023-12-04T22:50:32.641Z,-0.40
2023-12-04T22:55:34.425Z,-0.40
2023-12-04T23:00:40.001Z,-0.50
2023-12-04T23:05:43.589Z,-0.50
2023-12-04T23:10:45.402Z,-0.40
2023-12-04T23:15:47.596Z,-0.50
2023-12-04T23:20:49.475Z,-0.40
2023-12-04T23:25:51.415Z,-0.30
2023-12-04T23:30:53.203Z,-0.30
2023-12-04T23:35:55.669Z,-0.40
2023-12-04T23:40:57.459Z,-0.40
2023-12-04T23:46:00.100Z,-0.30
2023-12-04T23:51:01.853Z,-0.30
2023-12-04T23:56:03.796Z,-0.30
